Página principal
METAR-TAF:

METAR-TAF

Aeroportos :

Aeroporto Internacional Gobernador Francisco Gabrielli

Mendoza, Argentina

latitude: 32-50S, longitude: 068-47W, altura: 705 m

Observação actual do tempo

O boletim foi feito há 47 minutos, às 04:00 UTC
Vento 4 kt de sudeste
Temperatura 9°C
Humidade 71%
Pressão 1020 hPa
Visibilidade 10 km ou mais
sem nuvens abaixo de 1500 metros e sem cumulonimbus

METAR: SAME 230400Z 14004KT CAVOK 09/04 Q1020

Hora: 01:47 (04:47 UTC)

Previsão

O boletim foi feito há 5 horas e 47 minutos, às 23:00 UTC
Previsão válida de 23 às 00 UTC a 23 às 24 UTC
Vento 5 kt de nordeste
Visibilidade 10 km ou mais
Poucas nuvensa uma altura de 4000 ft

TAF: SAME 222300Z 2300/2324 05005KT 9999 FEW040 TN06/2310Z TX21/2320Z

Observações e previsões do tempo de mais de 4000 aeroportos (mensagens METAR e TAF).

As estações disponíveis são os pontos amarelos e vermelhos sobre o mapa.

Mova o rato sobre o mapa para ver o nome da estação.

Depois clique no ponto para visualizar as observações e previsões meteorológicas.

Para alterar o mapa : clique nos botões verdes com uma cruz preta para aumentar o zoom; no botão verde com uma pitada de zoom; ou nas setas verdes para mapas adjacentes.


METAR-TAF: